Time;durP1;ratioP1;P1;durP2;ratioP2;P2;SDS_P1;SDS_P2;PMS_P1;PMS_P2;Temp;Humidity;BMP_temperature;BMP_pressure;BME280_temperature;BME280_humidity;BME280_pressure;Samples;Min_cycle;Max_cycle;Signal;HPM_P1;HPM_P2
2021/03/31 00:00:39;;;;;;;1.40;0.20;;;13.30;56.60;;;;;;5086368;28;20211;-68
2021/03/31 00:03:09;;;;;;;1.40;0.20;;;13.30;56.70;;;;;;5099689;28;20306;-63
2021/03/31 00:05:34;;;;;;;1.40;0.20;;;13.30;56.70;;;;;;5092750;28;20807;-63
2021/03/31 00:08:00;;;;;;;1.37;0.20;;;13.30;56.60;;;;;;5095494;28;20442;-63
2021/03/31 00:10:48;;;;;;;1.40;0.20;;;13.40;56.70;;;;;;5093732;28;20184;-63
2021/03/31 00:13:15;;;;;;;1.37;0.20;;;13.30;56.90;;;;;;5098801;28;20223;-64
2021/03/31 00:15:41;;;;;;;1.33;0.20;;;13.30;57.20;;;;;;5105027;28;20967;-63
2021/03/31 00:18:12;;;;;;;1.40;0.20;;;13.30;57.30;;;;;;5098679;28;20450;-63
2021/03/31 00:20:40;;;;;;;1.40;0.20;;;13.30;57.40;;;;;;5094653;28;20491;-63
2021/03/31 00:23:07;;;;;;;1.37;0.20;;;13.40;57.90;;;;;;5090943;28;20450;-63
2021/03/31 00:25:33;;;;;;;1.40;0.20;;;13.40;58.30;;;;;;5082101;28;20883;-63
2021/03/31 00:27:59;;;;;;;1.30;0.20;;;13.40;58.40;;;;;;5088416;28;20472;-63
2021/03/31 00:30:25;;;;;;;1.40;0.20;;;13.40;58.10;;;;;;5101591;28;20184;-63
2021/03/31 00:32:50;;;;;;;1.40;0.20;;;13.50;57.60;;;;;;5097751;28;20461;-63
2021/03/31 00:35:16;;;;;;;1.30;0.20;;;13.50;57.10;;;;;;5087517;28;20453;-63
2021/03/31 00:37:42;;;;;;;1.30;0.20;;;13.50;56.90;;;;;;5095359;28;20191;-63
2021/03/31 00:40:13;;;;;;;1.40;0.20;;;13.60;56.90;;;;;;5089610;28;20212;-63
2021/03/31 00:42:39;;;;;;;1.40;0.20;;;13.60;56.60;;;;;;5095454;28;20203;-63
2021/03/31 00:45:07;;;;;;;1.40;0.20;;;13.60;56.30;;;;;;5090529;28;20454;-63
2021/03/31 00:47:32;;;;;;;1.33;0.20;;;13.50;56.30;;;;;;5095024;28;20229;-63
2021/03/31 00:49:58;;;;;;;1.40;0.20;;;13.60;56.80;;;;;;5090933;28;20429;-63
2021/03/31 00:52:24;;;;;;;1.40;0.20;;;13.60;56.70;;;;;;5087555;28;20659;-63
2021/03/31 00:54:50;;;;;;;1.40;0.20;;;13.60;56.40;;;;;;5088124;28;20272;-63
2021/03/31 00:57:16;;;;;;;1.40;0.20;;;13.50;57.00;;;;;;5099879;28;20916;-63
2021/03/31 00:59:41;;;;;;;1.40;0.20;;;13.40;57.60;;;;;;5098828;28;20191;-63
2021/03/31 01:02:07;;;;;;;1.40;0.20;;;13.30;57.70;;;;;;5095629;28;20484;-63
2021/03/31 01:04:33;;;;;;;1.40;0.20;;;13.20;57.60;;;;;;5097385;28;20186;-62
2021/03/31 01:06:58;;;;;;;1.40;0.20;;;13.10;57.70;;;;;;5097952;28;20188;-63
2021/03/31 01:09:25;;;;;;;1.40;0.20;;;13.10;57.60;;;;;;5090308;28;20701;-63
2021/03/31 01:12:14;;;;;;;1.40;0.20;;;13.10;57.40;;;;;;5095373;28;20203;-63
2021/03/31 01:14:48;;;;;;;1.37;0.20;;;13.10;57.30;;;;;;5107201;28;20417;-63
2021/03/31 01:17:42;;;;;;;1.40;0.20;;;13.10;57.40;;;;;;5096482;28;20528;-64
2021/03/31 01:20:30;;;;;;;1.40;0.20;;;13.10;57.50;;;;;;5089221;28;20461;-63
2021/03/31 01:23:29;;;;;;;1.33;0.20;;;13.00;57.90;;;;;;5092757;28;20552;-65
2021/03/31 01:26:01;;;;;;;1.40;0.20;;;13.00;58.30;;;;;;5101546;28;20422;-61
2021/03/31 01:28:50;;;;;;;1.40;0.20;;;12.90;58.30;;;;;;5090855;28;20437;-64
2021/03/31 01:31:38;;;;;;;1.37;0.20;;;12.90;58.40;;;;;;5099785;28;20939;-63
2021/03/31 01:34:10;;;;;;;1.40;0.50;;;12.90;58.60;;;;;;5094042;28;20441;-63
2021/03/31 01:36:37;;;;;;;1.40;0.20;;;12.80;58.90;;;;;;5094319;28;20422;-63
2021/03/31 01:39:06;;;;;;;1.40;0.20;;;12.80;59.30;;;;;;5093982;28;20963;-63
2021/03/31 01:41:34;;;;;;;1.37;0.20;;;12.70;60.00;;;;;;5098163;28;20473;-63
2021/03/31 01:44:02;;;;;;;1.40;0.20;;;12.60;60.30;;;;;;5100049;28;20447;-63
2021/03/31 01:46:32;;;;;;;1.40;0.20;;;12.50;60.00;;;;;;5100622;28;20441;-63
2021/03/31 01:49:00;;;;;;;1.40;0.20;;;12.40;60.00;;;;;;5103586;28;20425;-65
2021/03/31 01:51:26;;;;;;;1.40;0.20;;;12.50;60.20;;;;;;5091377;28;20461;-64
2021/03/31 01:53:53;;;;;;;1.30;0.20;;;12.50;60.10;;;;;;5109515;28;20438;-65
2021/03/31 01:56:19;;;;;;;1.40;0.20;;;12.50;60.30;;;;;;5107734;28;20521;-63
2021/03/31 01:58:47;;;;;;;1.33;0.20;;;12.50;60.50;;;;;;5110444;28;20450;-62
2021/03/31 02:01:17;;;;;;;1.40;0.20;;;12.40;60.80;;;;;;5110292;28;20207;-66
2021/03/31 02:03:44;;;;;;;1.40;0.20;;;12.40;61.20;;;;;;5113588;28;20425;-63
2021/03/31 02:06:11;;;;;;;1.40;0.20;;;12.40;61.40;;;;;;5107716;28;20429;-63
2021/03/31 02:08:39;;;;;;;1.40;0.20;;;12.40;61.50;;;;;;5107198;28;20492;-62
2021/03/31 02:11:05;;;;;;;1.37;0.20;;;12.30;61.80;;;;;;5096592;28;20952;-65
2021/03/31 02:13:31;;;;;;;1.40;0.20;;;12.20;61.90;;;;;;5110588;28;20468;-63
2021/03/31 02:15:59;;;;;;;1.40;0.20;;;12.20;62.40;;;;;;5107355;28;20448;-62
2021/03/31 02:18:28;;;;;;;1.40;0.20;;;12.30;62.50;;;;;;5107155;28;20437;-64
2021/03/31 02:20:55;;;;;;;1.40;0.20;;;12.30;62.50;;;;;;5105791;28;20480;-63
2021/03/31 02:23:21;;;;;;;2.67;0.60;;;12.30;62.50;;;;;;5113180;28;20444;-64
2021/03/31 02:25:47;;;;;;;1.40;0.20;;;12.30;62.50;;;;;;5104390;28;20444;-66
2021/03/31 02:28:14;;;;;;;1.40;0.20;;;12.30;63.80;;;;;;5110867;28;20511;-63
2021/03/31 02:30:40;;;;;;;1.40;0.20;;;12.20;63.10;;;;;;5120184;28;20429;-62
2021/03/31 02:33:09;;;;;;;1.40;0.30;;;12.20;63.10;;;;;;5114728;28;20865;-63
2021/03/31 02:35:36;;;;;;;1.37;0.20;;;12.20;63.00;;;;;;5110000;28;20970;-63
2021/03/31 02:38:07;;;;;;;1.40;0.20;;;12.30;63.10;;;;;;5099742;28;20426;-63
2021/03/31 02:40:36;;;;;;;1.40;0.20;;;12.30;63.00;;;;;;5093817;28;20470;-63
2021/03/31 02:43:04;;;;;;;1.40;0.20;;;12.20;63.50;;;;;;5096048;28;20977;-64
2021/03/31 02:45:30;;;;;;;1.40;0.20;;;12.10;63.90;;;;;;5098543;28;20940;-64
2021/03/31 02:48:00;;;;;;;1.60;1.13;;;12.10;63.90;;;;;;5085070;28;20434;-64
2021/03/31 02:50:28;;;;;;;1.40;0.20;;;12.10;64.00;;;;;;5091125;28;20429;-63
2021/03/31 02:52:53;;;;;;;1.40;0.20;;;12.20;64.20;;;;;;5095371;28;20556;-64
2021/03/31 02:55:23;;;;;;;1.40;0.20;;;12.10;64.20;;;;;;5104101;28;20450;-63
2021/03/31 02:57:49;;;;;;;1.40;0.20;;;12.10;64.40;;;;;;5117593;28;20184;-63
2021/03/31 03:00:16;;;;;;;1.40;0.20;;;12.10;64.70;;;;;;5107858;28;20468;-64
2021/03/31 03:02:44;;;;;;;1.40;0.20;;;12.00;65.00;;;;;;5106165;28;20480;-64
2021/03/31 03:05:11;;;;;;;1.40;0.20;;;12.10;65.00;;;;;;5112922;28;20737;-63
2021/03/31 03:07:37;;;;;;;1.40;0.20;;;12.00;65.20;;;;;;5091917;28;20442;-64
2021/03/31 03:10:06;;;;;;;1.40;0.20;;;11.90;65.60;;;;;;5097992;28;20447;-64
2021/03/31 03:12:37;;;;;;;1.40;0.20;;;11.90;66.00;;;;;;5116778;28;20461;-65
2021/03/31 03:15:04;;;;;;;1.40;0.20;;;11.90;65.90;;;;;;5108364;28;20425;-64
2021/03/31 03:17:30;;;;;;;1.40;0.20;;;11.90;66.30;;;;;;5104414;28;20449;-64
2021/03/31 03:19:55;;;;;;;1.40;0.20;;;11.90;66.40;;;;;;5110818;28;20500;-65
2021/03/31 03:22:21;;;;;;;1.40;0.20;;;11.90;66.40;;;;;;5112125;28;20237;-64
2021/03/31 03:24:48;;;;;;;1.40;0.20;;;11.80;67.00;;;;;;5105117;28;20192;-64
2021/03/31 03:27:16;;;;;;;1.40;0.20;;;11.80;67.30;;;;;;5105253;28;20485;-63
2021/03/31 03:29:46;;;;;;;1.40;0.20;;;11.70;67.80;;;;;;5094885;28;20463;-63
2021/03/31 03:32:14;;;;;;;1.40;0.20;;;11.70;68.40;;;;;;5096303;28;20514;-64
2021/03/31 03:34:41;;;;;;;1.40;0.20;;;11.50;69.00;;;;;;5096024;28;20430;-64
2021/03/31 03:37:06;;;;;;;1.40;0.20;;;11.50;69.60;;;;;;5087149;28;20819;-64
2021/03/31 03:39:32;;;;;;;1.40;0.20;;;11.50;70.10;;;;;;5095487;28;20441;-62
2021/03/31 03:41:58;;;;;;;1.40;0.20;;;11.50;70.60;;;;;;5095254;28;20191;-63
2021/03/31 03:44:24;;;;;;;1.50;0.57;;;11.40;71.40;;;;;;5082651;28;20188;-63
2021/03/31 03:46:54;;;;;;;1.40;0.20;;;11.40;71.90;;;;;;5084669;28;20537;-64
2021/03/31 03:49:20;;;;;;;1.40;0.20;;;11.30;72.50;;;;;;5106425;28;20198;-65
2021/03/31 03:51:46;;;;;;;1.40;0.20;;;11.20;73.30;;;;;;5094892;28;20464;-64
2021/03/31 03:54:12;;;;;;;1.40;0.20;;;11.20;74.30;;;;;;5105650;28;20426;-64
2021/03/31 03:56:38;;;;;;;1.40;0.20;;;11.20;74.50;;;;;;5094407;28;20179;-64
2021/03/31 03:59:23;;;;;;;1.40;0.20;;;11.30;74.80;;;;;;5091376;28;20466;-64
2021/03/31 04:01:53;;;;;;;1.40;0.20;;;11.30;74.90;;;;;;5096112;28;20891;-64
2021/03/31 04:04:20;;;;;;;1.40;0.20;;;11.20;76.00;;;;;;5102952;28;20433;-64
2021/03/31 04:06:45;;;;;;;1.40;0.20;;;11.10;76.30;;;;;;5093218;28;20438;-64
2021/03/31 04:09:11;;;;;;;1.50;0.30;;;11.10;76.90;;;;;;5103959;28;20475;-64
2021/03/31 04:11:39;;;;;;;1.40;0.20;;;11.10;77.40;;;;;;5099003;28;20199;-64
2021/03/31 04:14:05;;;;;;;1.40;0.20;;;10.90;78.70;;;;;;5087700;28;20784;-63
2021/03/31 04:16:32;;;;;;;1.40;0.20;;;10.90;79.10;;;;;;5101842;28;20433;-63
2021/03/31 04:19:04;;;;;;;1.40;0.20;;;10.90;79.80;;;;;;5097123;28;20504;-63
2021/03/31 04:21:31;;;;;;;1.40;0.20;;;11.00;80.30;;;;;;5090522;28;20476;-63
2021/03/31 04:23:58;;;;;;;1.40;0.20;;;11.00;79.90;;;;;;5097830;28;20443;-64
2021/03/31 04:26:25;;;;;;;1.40;0.20;;;11.00;80.40;;;;;;5087106;28;20440;-64
2021/03/31 04:28:52;;;;;;;1.40;0.20;;;11.00;80.00;;;;;;5085782;28;20439;-64
2021/03/31 04:31:19;;;;;;;1.40;0.20;;;10.90;80.90;;;;;;5097586;28;20570;-64
2021/03/31 04:33:45;;;;;;;1.43;0.20;;;10.80;81.50;;;;;;5101374;28;20424;-64
2021/03/31 04:36:11;;;;;;;1.40;0.20;;;10.80;82.10;;;;;;5098601;28;20449;-64
2021/03/31 04:38:46;;;;;;;1.40;0.20;;;10.80;82.50;;;;;;5108021;28;20186;-63
2021/03/31 04:41:12;;;;;;;1.40;0.20;;;10.80;82.80;;;;;;5094450;28;20883;-63
2021/03/31 04:43:38;;;;;;;1.40;0.20;;;10.80;83.30;;;;;;5095812;28;20462;-63
2021/03/31 04:46:05;;;;;;;1.40;0.20;;;10.70;83.40;;;;;;5097948;28;20167;-63
2021/03/31 04:48:31;;;;;;;1.40;0.20;;;10.60;84.90;;;;;;5089329;28;20187;-63
2021/03/31 04:50:57;;;;;;;1.40;0.20;;;10.60;86.40;;;;;;5102093;28;20482;-63
2021/03/31 04:53:23;;;;;;;1.40;0.20;;;10.50;87.20;;;;;;5098055;28;20460;-63
2021/03/31 04:55:49;;;;;;;1.40;0.20;;;10.60;87.00;;;;;;5091329;28;20446;-63
2021/03/31 04:58:15;;;;;;;1.40;0.20;;;10.60;86.70;;;;;;5093060;28;20843;-63
2021/03/31 05:00:41;;;;;;;1.40;0.20;;;10.60;86.80;;;;;;5089546;28;21006;-63
2021/03/31 05:03:07;;;;;;;1.50;0.30;;;10.50;86.90;;;;;;5088851;28;20474;-63
2021/03/31 05:05:32;;;;;;;1.47;0.20;;;10.50;88.10;;;;;;5104464;28;20183;-63
2021/03/31 05:07:58;;;;;;;1.40;0.20;;;10.50;88.00;;;;;;5090465;28;20444;-62
2021/03/31 05:10:25;;;;;;;1.40;0.20;;;10.50;88.80;;;;;;5091315;28;20222;-63
2021/03/31 05:12:50;;;;;;;1.40;0.20;;;10.50;88.70;;;;;;5079217;28;21236;-62
2021/03/31 05:15:17;;;;;;;1.40;0.20;;;10.40;88.50;;;;;;5091743;28;20434;-63
2021/03/31 05:17:43;;;;;;;5.00;1.60;;;10.40;87.50;;;;;;5094475;28;20181;-63
2021/03/31 05:20:09;;;;;;;4.63;4.33;;;10.40;87.80;;;;;;5100066;28;20470;-63
2021/03/31 05:22:35;;;;;;;1.40;0.20;;;10.40;87.80;;;;;;5104538;28;20208;-64
2021/03/31 05:25:00;;;;;;;1.40;0.20;;;10.50;88.00;;;;;;5098255;28;20453;-62
2021/03/31 05:27:26;;;;;;;1.40;0.20;;;10.50;88.80;;;;;;5101382;28;20294;-64
2021/03/31 05:29:52;;;;;;;1.40;0.20;;;10.60;89.10;;;;;;5113204;28;20244;-68
2021/03/31 05:32:17;;;;;;;1.40;0.20;;;10.60;88.60;;;;;;5114305;28;20207;-63
2021/03/31 05:34:43;;;;;;;1.40;0.20;;;10.60;88.90;;;;;;5110517;28;20207;-64
2021/03/31 05:37:08;;;;;;;1.40;0.30;;;10.60;87.90;;;;;;5103852;28;20300;-67
2021/03/31 05:39:34;;;;;;;1.50;0.20;;;10.70;87.40;;;;;;5110279;28;20188;-63
2021/03/31 05:42:00;;;;;;;1.40;0.20;;;10.70;87.60;;;;;;5111769;28;20589;-63
2021/03/31 05:44:26;;;;;;;1.40;0.20;;;10.70;88.20;;;;;;5096668;28;20450;-63
2021/03/31 05:46:52;;;;;;;1.40;0.20;;;10.60;87.40;;;;;;5098184;28;20188;-63
2021/03/31 05:49:18;;;;;;;1.40;0.20;;;10.70;87.80;;;;;;5092268;28;20195;-63
2021/03/31 05:51:44;;;;;;;1.40;0.20;;;10.60;88.00;;;;;;5091732;28;20466;-63
2021/03/31 05:54:10;;;;;;;2.07;0.67;;;10.70;87.60;;;;;;5092064;28;20193;-63
2021/03/31 05:56:36;;;;;;;1.40;0.20;;;10.70;87.50;;;;;;5097419;28;20437;-64
2021/03/31 05:59:04;;;;;;;1.47;0.30;;;10.60;87.40;;;;;;5093390;28;20191;-62
2021/03/31 06:01:29;;;;;;;1.40;0.20;;;10.60;87.30;;;;;;5109624;28;20501;-63
2021/03/31 06:03:58;;;;;;;1.40;0.20;;;10.60;87.00;;;;;;5109527;28;20476;-63
2021/03/31 06:06:25;;;;;;;1.40;0.20;;;10.60;86.60;;;;;;5107454;28;20196;-63
2021/03/31 06:08:51;;;;;;;1.40;0.20;;;10.70;86.70;;;;;;5114220;28;20517;-64
2021/03/31 06:11:21;;;;;;;1.40;0.20;;;10.80;86.40;;;;;;5092236;28;20499;-63
2021/03/31 06:14:01;;;;;;;1.50;0.30;;;10.80;87.00;;;;;;5094554;28;20456;-63
2021/03/31 06:16:43;;;;;;;1.60;0.63;;;10.70;86.80;;;;;;5099592;28;20513;-63
2021/03/31 06:19:22;;;;;;;1.40;0.20;;;10.70;86.80;;;;;;5101538;28;20443;-63
2021/03/31 06:22:05;;;;;;;1.40;0.20;;;10.80;86.80;;;;;;5094029;28;20796;-64
2021/03/31 06:24:33;;;;;;;1.50;0.50;;;10.80;86.70;;;;;;5097740;28;20434;-63
2021/03/31 06:26:59;;;;;;;1.43;0.20;;;10.90;87.40;;;;;;5097916;28;20434;-63
2021/03/31 06:29:43;;;;;;;2.47;1.50;;;10.90;87.80;;;;;;5094885;28;20442;-63
2021/03/31 06:32:16;;;;;;;1.40;0.20;;;10.90;86.60;;;;;;5098299;28;20490;-64
2021/03/31 06:34:52;;;;;;;1.40;0.20;;;11.00;86.90;;;;;;5092774;28;20438;-62
2021/03/31 06:37:28;;;;;;;6.40;1.50;;;11.00;87.40;;;;;;5095036;28;20438;-62
2021/03/31 06:39:54;;;;;;;4.10;1.47;;;11.10;87.30;;;;;;5085869;28;20501;-62
2021/03/31 06:42:24;;;;;;;1.97;1.03;;;11.20;86.70;;;;;;5070529;28;20548;-63
2021/03/31 06:47:24;;;;;;;2.37;1.97;;;11.30;85.40;;;;;;5095859;28;20644;-63
2021/03/31 06:49:50;;;;;;;3.93;2.30;;;11.40;85.10;;;;;;5117444;28;20423;-62
2021/03/31 06:52:16;;;;;;;3.37;1.83;;;11.50;84.20;;;;;;5100407;28;20445;-64
2021/03/31 06:54:53;;;;;;;1.40;0.20;;;11.60;83.30;;;;;;5101568;28;20427;-63
2021/03/31 06:57:34;;;;;;;1.70;0.40;;;11.70;82.80;;;;;;5100038;28;20860;-63
2021/03/31 07:00:12;;;;;;;2.10;0.97;;;11.70;82.80;;;;;;5089879;28;20531;-62
2021/03/31 07:02:43;;;;;;;1.50;0.40;;;11.80;83.10;;;;;;5088373;28;20481;-63
2021/03/31 07:05:09;;;;;;;2.43;1.07;;;11.80;83.00;;;;;;5104127;28;20963;-63
2021/03/31 07:07:37;;;;;;;2.07;1.80;;;11.90;82.30;;;;;;5089123;28;20436;-63
2021/03/31 07:10:12;;;;;;;1.40;0.20;;;11.90;81.50;;;;;;5087781;28;20549;-64
2021/03/31 07:12:43;;;;;;;1.40;0.20;;;12.00;80.80;;;;;;5088225;28;20445;-62
2021/03/31 07:15:10;;;;;;;4.67;2.37;;;12.00;81.20;;;;;;5093015;28;20441;-62
2021/03/31 07:17:40;;;;;;;1.60;0.60;;;12.00;80.50;;;;;;5091455;28;20449;-60
2021/03/31 07:20:06;;;;;;;2.07;0.77;;;12.10;80.40;;;;;;5103229;28;20464;-63
2021/03/31 07:22:32;;;;;;;2.77;1.63;;;12.10;80.10;;;;;;5094510;28;20603;-62
2021/03/31 07:24:58;;;;;;;1.40;0.20;;;12.10;80.20;;;;;;5086947;28;20431;-64
2021/03/31 07:27:25;;;;;;;4.43;3.90;;;12.10;80.60;;;;;;5101362;28;20499;-63
2021/03/31 07:30:11;;;;;;;4.07;2.10;;;12.10;80.60;;;;;;5086681;28;20175;-64
2021/03/31 07:32:51;;;;;;;1.40;0.20;;;12.10;80.30;;;;;;5092114;28;21089;-65
2021/03/31 07:35:20;;;;;;;4.87;3.47;;;12.10;80.50;;;;;;5099828;28;20518;-65
2021/03/31 07:37:46;;;;;;;4.33;1.23;;;12.10;80.70;;;;;;5094684;28;20426;-65
2021/03/31 07:40:14;;;;;;;9.73;4.53;;;12.10;80.30;;;;;;5091010;28;20960;-64
2021/03/31 07:42:52;;;;;;;1.90;1.33;;;12.20;80.70;;;;;;5095940;28;20557;-63
2021/03/31 07:45:18;;;;;;;2.27;2.03;;;12.20;80.50;;;;;;5093595;28;20437;-65
2021/03/31 07:47:45;;;;;;;2.90;1.50;;;12.30;80.50;;;;;;5088554;28;20447;-64
2021/03/31 07:50:12;;;;;;;1.97;1.53;;;12.30;80.60;;;;;;5089622;28;20442;-66
2021/03/31 07:52:58;;;;;;;1.40;0.20;;;12.40;80.10;;;;;;5072490;28;20449;-65
2021/03/31 07:55:46;;;;;;;1.80;0.93;;;12.50;80.10;;;;;;5086342;28;20426;-65
2021/03/31 07:58:17;;;;;;;10.90;4.57;;;12.50;79.50;;;;;;5092978;28;20449;-65
2021/03/31 08:03:22;;;;;;;7.10;4.20;;;12.70;78.90;;;;;;5086539;28;20470;-64
2021/03/31 08:06:08;;;;;;;1.47;0.27;;;12.80;78.60;;;;;;5101657;28;20482;-64
2021/03/31 08:08:54;;;;;;;1.50;0.40;;;12.80;78.30;;;;;;5098305;28;20785;-65
2021/03/31 08:11:38;;;;;;;1.47;0.20;;;12.90;78.20;;;;;;5084910;28;20437;-65
2021/03/31 08:14:05;;;;;;;2.60;1.40;;;13.00;78.00;;;;;;5085334;28;21073;-63
2021/03/31 08:16:34;;;;;;;3.40;1.40;;;13.00;77.20;;;;;;5090760;28;20450;-64
2021/03/31 08:19:01;;;;;;;1.50;0.50;;;13.10;76.80;;;;;;5089694;28;20437;-65
2021/03/31 08:21:30;;;;;;;2.33;1.93;;;13.20;76.50;;;;;;5087039;28;20489;-66
2021/03/31 08:23:58;;;;;;;1.40;0.20;;;13.20;76.30;;;;;;5095883;28;20859;-65
2021/03/31 08:26:29;;;;;;;1.40;0.30;;;13.30;76.10;;;;;;5088208;28;20438;-64
2021/03/31 08:28:55;;;;;;;1.40;0.20;;;13.30;75.60;;;;;;5097328;28;20433;-65
2021/03/31 08:31:23;;;;;;;1.50;0.30;;;13.40;74.80;;;;;;5098823;28;20434;-66
2021/03/31 08:33:49;;;;;;;1.40;0.20;;;13.40;74.70;;;;;;5088202;28;20177;-65
2021/03/31 08:36:15;;;;;;;1.40;0.20;;;13.50;74.40;;;;;;5092111;28;20529;-65
2021/03/31 08:38:41;;;;;;;1.43;0.30;;;13.50;74.20;;;;;;5093995;28;20214;-64
2021/03/31 08:41:17;;;;;;;2.07;1.30;;;13.60;73.30;;;;;;5085938;28;20518;-65
2021/03/31 08:43:46;;;;;;;2.97;1.27;;;13.70;73.00;;;;;;5097494;28;20873;-66
2021/03/31 08:46:12;;;;;;;2.37;0.83;;;13.80;72.50;;;;;;5089266;28;20963;-64
2021/03/31 08:48:40;;;;;;;3.97;1.10;;;13.80;71.90;;;;;;5092066;28;20434;-65
2021/03/31 08:51:07;;;;;;;1.47;0.30;;;13.90;71.90;;;;;;5093442;28;20445;-65
2021/03/31 08:53:33;;;;;;;3.43;2.80;;;13.90;72.10;;;;;;5094781;28;20460;-66
2021/03/31 08:55:59;;;;;;;2.37;1.43;;;14.00;70.60;;;;;;5090979;28;20920;-66
2021/03/31 08:58:26;;;;;;;1.40;0.20;;;14.00;70.10;;;;;;5099937;28;20188;-66
2021/03/31 09:00:53;;;;;;;1.40;0.20;;;14.00;70.00;;;;;;5093420;28;20239;-65
2021/03/31 09:03:19;;;;;;;2.13;1.23;;;14.10;69.50;;;;;;5097097;28;20468;-65
2021/03/31 09:05:56;;;;;;;6.90;3.87;;;14.10;69.50;;;;;;5107030;28;20442;-65
2021/03/31 09:08:24;;;;;;;1.40;0.20;;;14.20;70.00;;;;;;5096202;28;20456;-66
2021/03/31 09:10:52;;;;;;;1.50;0.40;;;14.20;69.90;;;;;;5095372;28;20477;-67
2021/03/31 09:13:28;;;;;;;1.43;0.20;;;14.30;70.00;;;;;;5106418;28;20496;-65
2021/03/31 09:15:58;;;;;;;1.50;0.20;;;14.30;70.00;;;;;;5103186;28;20440;-67
2021/03/31 09:18:24;;;;;;;1.47;0.20;;;14.40;69.50;;;;;;5091919;28;20445;-66
2021/03/31 09:20:50;;;;;;;1.43;0.20;;;14.40;69.30;;;;;;5075845;28;20977;-67
2021/03/31 09:23:26;;;;;;;13.10;12.23;;;14.50;69.30;;;;;;5094225;28;20457;-66
2021/03/31 09:26:09;;;;;;;3.20;1.60;;;14.50;69.30;;;;;;5089589;28;20536;-66
2021/03/31 09:28:35;;;;;;;1.40;0.30;;;14.60;68.80;;;;;;5100097;28;20445;-66
2021/03/31 09:31:20;;;;;;;5.33;2.60;;;14.70;69.20;;;;;;5104142;28;20813;-68
2021/03/31 09:33:46;;;;;;;6.17;1.70;;;15.00;67.90;;;;;;5093408;28;20187;-67
2021/03/31 09:36:18;;;;;;;1.40;0.20;;;15.00;67.10;;;;;;5097551;28;20498;-67
2021/03/31 09:38:45;;;;;;;1.40;0.20;;;15.10;67.20;;;;;;5091846;28;20554;-65
2021/03/31 09:41:12;;;;;;;1.47;0.20;;;15.10;67.00;;;;;;5091954;28;20457;-66
2021/03/31 09:43:38;;;;;;;1.40;0.20;;;15.10;66.90;;;;;;5094689;28;20464;-66
2021/03/31 09:46:04;;;;;;;1.43;0.20;;;15.20;66.30;;;;;;5095594;28;20476;-65
2021/03/31 09:48:30;;;;;;;1.40;0.20;;;15.30;66.40;;;;;;5090599;28;20433;-65
2021/03/31 09:50:56;;;;;;;1.47;0.20;;;15.30;66.10;;;;;;5095661;28;20948;-64
2021/03/31 09:53:23;;;;;;;1.47;0.20;;;15.40;66.30;;;;;;5089601;28;20556;-65
2021/03/31 09:55:50;;;;;;;7.53;5.00;;;15.50;66.10;;;;;;5074070;28;20445;-64
2021/03/31 09:58:22;;;;;;;5.23;2.40;;;15.60;65.20;;;;;;5092792;28;20446;-65
2021/03/31 10:00:47;;;;;;;1.40;0.20;;;15.80;65.10;;;;;;5095269;28;20457;-65
2021/03/31 10:03:13;;;;;;;1.90;1.37;;;15.90;65.20;;;;;;5090976;28;20468;-65
2021/03/31 10:05:39;;;;;;;1.43;0.20;;;16.00;64.60;;;;;;5077096;28;20179;-66
2021/03/31 10:08:09;;;;;;;1.43;0.20;;;16.00;64.60;;;;;;5085009;28;20177;-66
2021/03/31 10:10:48;;;;;;;1.47;0.30;;;16.10;64.40;;;;;;5088995;28;20197;-65
2021/03/31 10:13:15;;;;;;;1.40;0.20;;;16.10;63.90;;;;;;5080033;28;20488;-65
2021/03/31 10:15:55;;;;;;;1.40;0.20;;;16.40;63.30;;;;;;5089182;28;20555;-65
2021/03/31 10:18:21;;;;;;;123.10;16.00;;;16.40;62.30;;;;;;5086247;28;20523;-65
2021/03/31 10:20:48;;;;;;;1.53;0.50;;;16.50;62.20;;;;;;5099089;28;20517;-64
2021/03/31 10:23:34;;;;;;;6.97;3.80;;;16.50;61.70;;;;;;5069546;28;20463;-64
2021/03/31 10:26:20;;;;;;;2.77;1.50;;;16.70;61.50;;;;;;5089402;28;20526;-64
2021/03/31 10:28:46;;;;;;;1.70;0.77;;;16.90;60.60;;;;;;5093277;28;20511;-64
2021/03/31 10:31:22;;;;;;;1.60;0.60;;;17.00;60.40;;;;;;5090882;28;20500;-65
2021/03/31 10:33:48;;;;;;;1.40;0.20;;;17.00;60.20;;;;;;5092814;28;20183;-65
2021/03/31 10:53:41;;;;;;;1.43;0.20;;;17.80;58.70;;;;;;5089947;28;20488;-64
2021/03/31 10:56:07;;;;;;;5.30;3.27;;;17.80;58.40;;;;;;5089351;28;20452;-63
2021/03/31 10:58:33;;;;;;;2.10;1.13;;;17.90;58.10;;;;;;5096961;28;20466;-63
2021/03/31 11:00:59;;;;;;;11.00;5.80;;;18.00;58.00;;;;;;5091183;28;20453;-64
2021/03/31 11:03:26;;;;;;;4.00;2.80;;;18.30;57.20;;;;;;5084714;28;20203;-64
2021/03/31 11:05:52;;;;;;;1.40;0.20;;;18.30;57.20;;;;;;5092496;28;20248;-64
2021/03/31 11:08:18;;;;;;;4.10;2.57;;;18.50;56.80;;;;;;5091919;28;21162;-64
2021/03/31 11:10:43;;;;;;;2.43;0.70;;;18.70;55.60;;;;;;5092522;28;20567;-63
2021/03/31 11:13:09;;;;;;;1.40;0.20;;;18.90;55.10;;;;;;5095325;28;20203;-64
2021/03/31 11:15:35;;;;;;;1.40;0.20;;;18.90;55.30;;;;;;5089305;28;20191;-63
2021/03/31 11:18:10;;;;;;;7.30;6.60;;;19.00;55.00;;;;;;5090005;28;20186;-64
2021/03/31 11:20:54;;;;;;;1.60;0.67;;;19.00;55.20;;;;;;5104663;28;20200;-64
2021/03/31 11:26:04;;;;;;;7.90;4.83;;;19.20;55.60;;;;;;5084442;28;20896;-63
2021/03/31 11:28:30;;;;;;;1.53;0.63;;;19.20;55.50;;;;;;5091952;28;20536;-64
2021/03/31 11:30:55;;;;;;;4.53;2.27;;;19.30;55.10;;;;;;5092500;28;20189;-64
2021/03/31 11:33:23;;;;;;;1.40;0.20;;;19.30;54.80;;;;;;5090878;28;20201;-64
2021/03/31 11:35:49;;;;;;;1.40;0.20;;;19.30;55.30;;;;;;5093954;28;20194;-64
2021/03/31 11:38:15;;;;;;;76.30;28.23;;;19.40;55.10;;;;;;5087946;28;20445;-64
2021/03/31 11:40:41;;;;;;;1.40;0.20;;;19.50;54.70;;;;;;5092663;28;20525;-64
2021/03/31 11:43:10;;;;;;;2.30;2.10;;;19.50;54.80;;;;;;5091675;28;20447;-64
2021/03/31 11:45:35;;;;;;;2.37;1.67;;;19.60;54.90;;;;;;5085512;28;20433;-66
2021/03/31 11:48:01;;;;;;;3.83;2.07;;;19.70;54.50;;;;;;5092198;28;20445;-65
2021/03/31 11:50:26;;;;;;;1.40;0.20;;;19.90;54.00;;;;;;5069546;28;20190;-65
2021/03/31 11:52:53;;;;;;;1.50;0.50;;;20.10;52.40;;;;;;5091537;28;20699;-64
2021/03/31 11:55:20;;;;;;;1.40;0.20;;;20.10;52.60;;;;;;5102627;28;20187;-64
2021/03/31 11:57:45;;;;;;;6.33;3.17;;;20.20;51.70;;;;;;5094363;28;20493;-63
2021/03/31 12:00:12;;;;;;;1.40;0.20;;;20.30;51.60;;;;;;5084790;28;20488;-64
2021/03/31 12:02:37;;;;;;;6.80;2.97;;;20.40;51.10;;;;;;5086981;28;20579;-64
2021/03/31 12:05:04;;;;;;;1.40;0.20;;;20.50;51.30;;;;;;5084003;28;20495;-64
2021/03/31 12:07:29;;;;;;;5.50;5.10;;;20.50;51.20;;;;;;5090323;28;20180;-64
2021/03/31 12:09:55;;;;;;;11.47;10.73;;;20.60;51.00;;;;;;5100044;28;20439;-64
2021/03/31 12:12:20;;;;;;;1.40;0.20;;;20.70;49.60;;;;;;5088130;28;20292;-64
2021/03/31 12:14:46;;;;;;;1.40;0.20;;;20.80;49.60;;;;;;5095374;28;20747;-64
2021/03/31 12:17:13;;;;;;;7.63;4.47;;;20.90;50.10;;;;;;5100923;28;20184;-65
2021/03/31 12:19:38;;;;;;;1.70;1.07;;;21.00;49.00;;;;;;5087676;28;20446;-64
2021/03/31 12:22:04;;;;;;;7.33;5.20;;;21.00;49.50;;;;;;5093712;28;20499;-65
2021/03/31 12:24:30;;;;;;;1.40;0.20;;;21.10;50.00;;;;;;5092922;28;20232;-64
2021/03/31 12:27:03;;;;;;;1.40;0.20;;;21.10;49.50;;;;;;5087351;28;20631;-65
2021/03/31 12:29:28;;;;;;;2.63;1.90;;;21.10;50.00;;;;;;5096627;28;20448;-66
2021/03/31 12:31:54;;;;;;;5.40;3.30;;;21.20;49.20;;;;;;5098575;28;20825;-66
2021/03/31 12:34:20;;;;;;;1.40;0.20;;;21.40;49.10;;;;;;5090160;28;20556;-65
2021/03/31 12:36:45;;;;;;;1.40;0.20;;;21.40;48.90;;;;;;5098483;28;20192;-66
2021/03/31 12:39:11;;;;;;;5.00;2.67;;;21.40;49.50;;;;;;5082487;28;20204;-66
2021/03/31 12:41:36;;;;;;;7.03;3.93;;;21.40;49.50;;;;;;5087282;28;20598;-65
2021/03/31 12:44:02;;;;;;;1.50;0.70;;;21.50;49.30;;;;;;5090913;28;20184;-64
2021/03/31 12:46:27;;;;;;;1.40;0.20;;;21.50;49.10;;;;;;5071695;28;20543;-64
2021/03/31 12:48:53;;;;;;;6.17;4.27;;;21.50;49.20;;;;;;5087628;28;20195;-65
2021/03/31 12:51:55;;;;;;;1.40;0.20;;;21.60;49.60;;;;;;5090115;28;20549;-66
2021/03/31 12:56:55;;;;;;;4.33;3.30;;;21.70;49.80;;;;;;5096724;28;20442;-64
2021/03/31 12:59:21;;;;;;;1.40;0.30;;;21.80;49.80;;;;;;5096858;28;20437;-64
2021/03/31 13:01:47;;;;;;;1.40;0.30;;;21.90;50.00;;;;;;5086395;28;20522;-65
2021/03/31 13:04:14;;;;;;;4.03;2.37;;;21.90;49.50;;;;;;5090397;28;20176;-64
2021/03/31 13:06:40;;;;;;;4.47;1.87;;;21.90;49.50;;;;;;5093916;28;20191;-63
2021/03/31 13:09:06;;;;;;;4.50;2.53;;;21.90;49.60;;;;;;5088282;28;20488;-64
2021/03/31 13:11:31;;;;;;;1.50;0.30;;;22.00;48.80;;;;;;5090167;28;20188;-64
2021/03/31 13:24:58;;;;;;;1.40;0.20;;;22.50;46.00;;;;;;5093806;28;20793;-64
2021/03/31 13:27:43;;;;;;;1.40;0.20;;;22.50;46.30;;;;;;5085623;28;20438;-64
2021/03/31 13:32:57;;;;;;;1.50;0.40;;;22.60;46.70;;;;;;5099857;28;20468;-64
2021/03/31 13:38:27;;;;;;;1.40;0.20;;;22.70;44.80;;;;;;5092581;28;20939;-64